createdAt,value
2022-09-02T00:01:14.875Z,101672.91
2022-09-02T00:03:17.638Z,101671.41
2022-09-02T00:05:19.475Z,101665.34
2022-09-02T00:07:21.278Z,101670.78
2022-09-02T00:09:24.629Z,101665.25
2022-09-02T00:11:32.446Z,101668.81
2022-09-02T00:13:37.232Z,101668.97
2022-09-02T00:15:38.910Z,101665.09
2022-09-02T00:17:41.965Z,101671.66
2022-09-02T00:19:44.609Z,101664.56
2022-09-02T00:21:46.329Z,101664.97
2022-09-02T00:23:48.684Z,101671.97
2022-09-02T00:25:50.659Z,101660.41
2022-09-02T00:27:52.283Z,101670.09
2022-09-02T00:29:55.274Z,101655.28
2022-09-02T00:31:57.365Z,101650.88
2022-09-02T00:33:59.963Z,101659.69
2022-09-02T00:36:03.571Z,101656.31
2022-09-02T00:38:06.841Z,101651.59
2022-09-02T00:40:10.040Z,101651.44
2022-09-02T00:42:12.243Z,101647.72
2022-09-02T00:44:17.247Z,101659.03
2022-09-02T00:46:22.309Z,101653.16
2022-09-02T00:48:23.896Z,101653.16
2022-09-02T00:50:30.125Z,101648.50
2022-09-02T00:52:35.377Z,101654.38
2022-09-02T00:54:41.248Z,101652.03
2022-09-02T00:56:44.840Z,101648.66
2022-09-02T00:58:48.026Z,101654.09
2022-09-02T01:00:53.158Z,101651.19
2022-09-02T01:02:59.310Z,101650.06
2022-09-02T01:05:02.008Z,101644.88
2022-09-02T01:07:03.878Z,101648.03
2022-09-02T01:09:11.698Z,101646.31
2022-09-02T01:11:13.374Z,101647.22
2022-09-02T01:13:17.605Z,101639.34
2022-09-02T01:15:19.242Z,101644.09
2022-09-02T01:17:20.839Z,101648.03
2022-09-02T01:19:26.552Z,101643.75
2022-09-02T01:21:28.259Z,101640.13
2022-09-02T01:23:32.375Z,101642.81
2022-09-02T01:25:37.155Z,101637.31
2022-09-02T01:27:38.960Z,101627.78
2022-09-02T01:29:40.612Z,101632.81
2022-09-02T01:31:42.322Z,101639.03
2022-09-02T01:33:44.037Z,101638.19
2022-09-02T01:35:48.135Z,101624.06
2022-09-02T01:37:55.612Z,101630.16
2022-09-02T01:39:59.307Z,101633.81
2022-09-02T01:42:00.881Z,101631.97
2022-09-02T01:44:03.167Z,101628.47
2022-09-02T01:46:05.220Z,101635.59
2022-09-02T01:48:07.999Z,101634.94
2022-09-02T01:50:09.875Z,101634.16
2022-09-02T01:52:11.448Z,101636.75
2022-09-02T01:54:13.256Z,101633.53
2022-09-02T01:56:16.744Z,101636.91
2022-09-02T01:58:19.062Z,101629.31
2022-09-02T02:00:21.565Z,101631.91
2022-09-02T02:02:23.751Z,101632.84
2022-09-02T02:04:26.813Z,101630.41
2022-09-02T02:06:28.454Z,101624.44
2022-09-02T02:08:30.209Z,101636.19
2022-09-02T02:10:32.753Z,101625.16
2022-09-02T02:12:36.368Z,101631.69
2022-09-02T02:14:40.943Z,101631.44
2022-09-02T02:16:42.647Z,101628.06
2022-09-02T02:18:44.359Z,101624.78
2022-09-02T02:20:45.899Z,101627.53
2022-09-02T02:22:48.678Z,101625.97
2022-09-02T02:24:50.247Z,101628.72
2022-09-02T02:26:52.107Z,101628.03
2022-09-02T02:28:55.390Z,101625.44
2022-09-02T02:30:57.655Z,101622.28
2022-09-02T02:32:59.337Z,101618.84
2022-09-02T02:35:00.894Z,101615.22
2022-09-02T02:37:04.237Z,101616.47
2022-09-02T02:39:07.571Z,101623.78
2022-09-02T02:41:09.176Z,101625.44
2022-09-02T02:43:10.724Z,101619.31
2022-09-02T02:45:15.263Z,101620.19
2022-09-02T02:47:19.411Z,101621.19
2022-09-02T02:49:21.111Z,101624.81
2022-09-02T02:51:22.864Z,101619.47
2022-09-02T02:53:24.531Z,101613.66
2022-09-02T02:55:26.141Z,101617.19
2022-09-02T02:57:27.807Z,101618.19
2022-09-02T02:59:30.099Z,101612.72
2022-09-02T03:01:37.369Z,101618.84
2022-09-02T03:03:43.961Z,101618.13
2022-09-02T03:05:47.355Z,101611.44
2022-09-02T03:07:48.896Z,101608.28
2022-09-02T03:09:50.801Z,101614.50
2022-09-02T03:11:52.561Z,101619.22
2022-09-02T03:13:59.287Z,101613.78
2022-09-02T03:16:06.812Z,101613.94
2022-09-02T03:18:15.942Z,101609.06
2022-09-02T03:20:21.103Z,101609.84
2022-09-02T03:22:23.028Z,101610.72
2022-09-02T03:24:24.576Z,101606.06
2022-09-02T03:26:26.502Z,101613.47
2022-09-02T03:28:28.319Z,101604.25
2022-09-02T03:30:32.090Z,101606.53
2022-09-02T03:32:33.674Z,101611.91
2022-09-02T03:34:36.915Z,101609.53
2022-09-02T03:36:40.920Z,101611.91
2022-09-02T03:38:42.460Z,101613.19
2022-09-02T03:40:44.117Z,101617.84
2022-09-02T03:42:45.973Z,101611.38
2022-09-02T03:44:48.399Z,101611.03
2022-09-02T03:46:49.953Z,101606.03
2022-09-02T03:48:52.362Z,101595.50
2022-09-02T03:50:55.226Z,101604.06
2022-09-02T03:52:57.674Z,101601.72
2022-09-02T03:54:59.483Z,101598.09
2022-09-02T03:57:01.543Z,101603.53
2022-09-02T03:59:03.933Z,101584.63
2022-09-02T04:01:07.294Z,101603.84
2022-09-02T04:03:08.951Z,101604.94
2022-09-02T04:05:15.930Z,101603.84
2022-09-02T04:07:18.955Z,101608.63
2022-09-02T04:09:20.830Z,101609.50
2022-09-02T04:11:23.178Z,101613.25
2022-09-02T04:13:24.959Z,101616.25
2022-09-02T04:15:26.453Z,101611.75
2022-09-02T04:17:28.034Z,101615.44
2022-09-02T04:19:29.652Z,101620.00
2022-09-02T04:21:33.445Z,101617.19
2022-09-02T04:23:39.824Z,101620.16
2022-09-02T04:25:43.264Z,101618.34
2022-09-02T04:27:44.766Z,101626.13
2022-09-02T04:29:46.334Z,101626.28
2022-09-02T04:31:47.862Z,101620.31
2022-09-02T04:33:49.404Z,101622.97
2022-09-02T04:35:51.043Z,101615.19
2022-09-02T04:37:52.776Z,101622.19
2022-09-02T04:39:55.695Z,101621.25
2022-09-02T04:41:57.793Z,101621.25
2022-09-02T04:44:00.131Z,101621.25
2022-09-02T04:46:05.126Z,101621.09
2022-09-02T04:48:06.805Z,101612.44
2022-09-02T04:50:08.461Z,101613.88
2022-09-02T04:52:10.040Z,101616.63
2022-09-02T04:54:11.570Z,101618.03
2022-09-02T04:56:16.591Z,101617.19
2022-09-02T04:58:18.117Z,101617.34
2022-09-02T05:00:20.036Z,101611.69
2022-09-02T05:02:21.648Z,101623.94
2022-09-02T05:04:23.323Z,101619.31
2022-09-02T05:06:27.811Z,101625.53
2022-09-02T05:08:29.553Z,101622.06
2022-09-02T05:10:31.864Z,101608.22
2022-09-02T05:12:35.626Z,101627.56
2022-09-02T05:14:37.345Z,101623.16
2022-09-02T05:16:40.712Z,101621.03
2022-09-02T05:18:42.356Z,101630.88
2022-09-02T05:20:44.342Z,101636.38
2022-09-02T05:22:45.909Z,101633.41
2022-09-02T05:24:48.967Z,101636.84
2022-09-02T05:26:50.654Z,101635.75
2022-09-02T05:28:53.743Z,101632.06
2022-09-02T05:30:55.318Z,101624.66
2022-09-02T05:32:56.970Z,101631.38
2022-09-02T05:34:58.498Z,101631.72
2022-09-02T05:37:00.165Z,101626.59
2022-09-02T05:39:02.092Z,101633.97
2022-09-02T05:41:05.255Z,101632.03
2022-09-02T05:43:07.086Z,101628.16
2022-09-02T05:45:11.208Z,101631.97
2022-09-02T05:47:15.518Z,101629.38
2022-09-02T05:49:17.087Z,101624.47
2022-09-02T05:51:18.786Z,101625.16
2022-09-02T05:53:20.359Z,101630.09
2022-09-02T05:55:21.998Z,101627.38
2022-09-02T05:57:24.588Z,101622.09
2022-09-02T05:59:27.800Z,101626.34
2022-09-02T06:01:31.176Z,101637.50
2022-09-02T06:03:33.430Z,101625.84
2022-09-02T06:05:35.006Z,101632.75
2022-09-02T06:07:36.555Z,101634.50
2022-09-02T06:09:38.307Z,101625.84
2022-09-02T06:11:41.589Z,101624.13
2022-09-02T06:13:43.649Z,101628.19
2022-09-02T06:15:48.471Z,101625.50
2022-09-02T06:17:51.376Z,101630.00
2022-09-02T06:19:53.033Z,101628.63
2022-09-02T06:21:57.033Z,101620.44
2022-09-02T06:23:59.561Z,101623.59
2022-09-02T06:26:01.501Z,101622.91
2022-09-02T06:28:06.998Z,101624.47
2022-09-02T06:30:10.437Z,101638.75
2022-09-02T06:32:12.190Z,101631.84
2022-09-02T06:34:17.744Z,101624.41
2022-09-02T06:36:20.073Z,101630.97
2022-09-02T06:38:21.662Z,101626.66
2022-09-02T06:40:23.427Z,101632.34
2022-09-02T06:42:25.029Z,101631.16
2022-09-02T06:44:26.579Z,101627.88
2022-09-02T06:46:30.745Z,101642.06
2022-09-02T06:48:32.330Z,101632.03
2022-09-02T06:50:38.852Z,101627.06
2022-09-02T06:52:40.419Z,101630.09
2022-09-02T06:54:41.982Z,101626.50
2022-09-02T06:56:49.486Z,101630.66
2022-09-02T06:58:54.294Z,101621.84
2022-09-02T07:00:55.814Z,101624.72
2022-09-02T07:02:57.925Z,101625.50
2022-09-02T07:05:00.479Z,101629.47
2022-09-02T07:07:05.079Z,101630.63
2022-09-02T07:09:08.841Z,101631.22
2022-09-02T07:11:17.184Z,101627.28
2022-09-02T07:13:18.713Z,101638.06
2022-09-02T07:15:20.242Z,101635.38
2022-09-02T07:17:21.968Z,101634.91
2022-09-02T07:19:24.447Z,101635.91
2022-09-02T07:21:28.424Z,101642.31
2022-09-02T07:23:31.355Z,101635.00
2022-09-02T07:25:32.924Z,101638.69
2022-09-02T07:27:35.614Z,101641.34
2022-09-02T07:29:37.279Z,101636.97
2022-09-02T07:31:41.553Z,101628.72
2022-09-02T07:33:43.721Z,101635.09
2022-09-02T07:35:45.325Z,101636.97
2022-09-02T07:37:46.892Z,101638.34
2022-09-02T07:39:49.819Z,101638.28
2022-09-02T07:41:52.555Z,101641.50
2022-09-02T07:43:56.351Z,101629.75
2022-09-02T07:46:01.759Z,101628.94
2022-09-02T07:48:06.661Z,101629.16
2022-09-02T07:50:19.031Z,101638.47
2022-09-02T07:52:21.632Z,101627.50
2022-09-02T07:54:25.836Z,101630.19
2022-09-02T07:56:28.864Z,101632.41
2022-09-02T07:58:32.389Z,101627.19
2022-09-02T08:00:36.464Z,101630.00
2022-09-02T08:02:38.076Z,101625.72
2022-09-02T08:04:39.943Z,101625.88
2022-09-02T08:06:41.523Z,101614.34
2022-09-02T08:08:43.190Z,101629.00
2022-09-02T08:10:44.742Z,101626.91
2022-09-02T08:12:50.887Z,101626.50
2022-09-02T08:14:52.565Z,101624.25
2022-09-02T08:16:55.591Z,101623.78
2022-09-02T08:18:57.587Z,101625.25
2022-09-02T08:20:59.174Z,101606.56
2022-09-02T08:23:11.499Z,101610.16
2022-09-02T08:25:19.945Z,101622.47
2022-09-02T08:27:21.528Z,101619.03
2022-09-02T08:29:27.163Z,101624.06
2022-09-02T08:31:28.807Z,101624.81
2022-09-02T08:33:30.396Z,101619.25
2022-09-02T08:35:32.099Z,101619.66
2022-09-02T08:37:34.783Z,101619.19
2022-09-02T08:39:39.658Z,101620.28
2022-09-02T08:41:51.915Z,101615.75
2022-09-02T08:43:56.841Z,101618.34
2022-09-02T08:46:04.009Z,101617.25
2022-09-02T08:48:12.287Z,101613.69
2022-09-02T08:50:16.083Z,101616.00
2022-09-02T08:52:26.330Z,101615.63
2022-09-02T08:54:37.353Z,101616.13
2022-09-02T08:56:38.950Z,101614.41
2022-09-02T08:58:43.855Z,101608.19
2022-09-02T09:00:55.407Z,101599.81
2022-09-02T09:03:04.775Z,101608.94
2022-09-02T09:05:21.171Z,101608.44
2022-09-02T09:07:32.841Z,101612.63
2022-09-02T09:09:55.186Z,101597.34
2022-09-02T09:12:06.644Z,101603.13
2022-09-02T09:14:20.544Z,101599.56
2022-09-02T09:16:32.080Z,101599.09
2022-09-02T09:18:39.051Z,101597.38
2022-09-02T09:20:43.015Z,101591.31
2022-09-02T09:22:45.989Z,101595.41
2022-09-02T09:24:48.986Z,101589.38
2022-09-02T09:26:50.506Z,101597.59
2022-09-02T09:28:52.535Z,101590.94
2022-09-02T09:30:54.096Z,101581.47
2022-09-02T09:32:57.354Z,101584.63
2022-09-02T09:35:06.728Z,101583.41
2022-09-02T09:37:10.046Z,101580.06
2022-09-02T09:39:19.140Z,101585.50
2022-09-02T09:41:23.453Z,101579.66
2022-09-02T09:43:31.250Z,101577.69
2022-09-02T09:45:37.410Z,101577.34
2022-09-02T09:47:39.279Z,101578.34
2022-09-02T09:49:40.842Z,101577.56
2022-09-02T09:51:56.407Z,101564.03
2022-09-02T09:54:17.897Z,101564.63
2022-09-02T09:56:27.067Z,101564.00
2022-09-02T09:58:36.088Z,101555.56
2022-09-02T10:00:38.761Z,101559.31
2022-09-02T10:02:47.830Z,101559.59
2022-09-02T10:04:50.344Z,101555.19
2022-09-02T10:06:56.035Z,101556.75
2022-09-02T10:08:59.122Z,101559.03
2022-09-02T10:11:05.437Z,101542.00
2022-09-02T10:13:22.805Z,101547.22
2022-09-02T10:15:35.762Z,101551.84
2022-09-02T10:17:43.934Z,101553.31
2022-09-02T10:19:55.225Z,101554.13
2022-09-02T10:22:17.908Z,101550.25
2022-09-02T10:24:37.296Z,101550.09
2022-09-02T10:26:44.987Z,101547.09
2022-09-02T10:29:08.902Z,101554.72
2022-09-02T10:31:17.072Z,101552.25
2022-09-02T10:33:36.917Z,101543.94
2022-09-02T10:35:45.702Z,101546.84
2022-09-02T10:38:06.437Z,101538.97
2022-09-02T10:40:12.289Z,101537.72
2022-09-02T10:42:24.041Z,101537.88
2022-09-02T10:44:32.580Z,101535.78
2022-09-02T10:46:44.933Z,101536.75
2022-09-02T10:48:58.071Z,101535.16
2022-09-02T10:51:06.483Z,101529.75
2022-09-02T10:53:34.424Z,101528.88
2022-09-02T10:55:44.936Z,101532.41
2022-09-02T10:57:51.974Z,101529.66
2022-09-02T11:00:05.996Z,101518.38
2022-09-02T11:02:13.932Z,101525.81
2022-09-02T11:04:25.027Z,101527.56
2022-09-02T11:06:40.409Z,101526.59
2022-09-02T11:08:53.185Z,101525.41
2022-09-02T11:11:02.089Z,101528.16
2022-09-02T11:13:09.318Z,101523.03
2022-09-02T11:15:19.420Z,101534.00
2022-09-02T11:17:28.175Z,101518.66
2022-09-02T11:19:35.506Z,101518.72
2022-09-02T11:21:49.277Z,101517.00
2022-09-02T11:23:55.145Z,101514.56
2022-09-02T11:26:04.873Z,101510.94
2022-09-02T11:28:24.017Z,101519.75
2022-09-02T11:30:32.691Z,101521.72
2022-09-02T11:32:42.767Z,101516.19
2022-09-02T11:34:47.084Z,101504.06
2022-09-02T11:36:49.223Z,101505.38
2022-09-02T11:38:58.662Z,101513.25
2022-09-02T11:41:36.695Z,101504.00
2022-09-02T11:43:46.401Z,101510.44
2022-09-02T11:46:03.327Z,101516.16
2022-09-02T11:48:46.886Z,101502.81
2022-09-02T11:51:15.090Z,101508.19
2022-09-02T11:53:23.268Z,101505.28
2022-09-02T11:55:34.050Z,101509.75
2022-09-02T11:57:36.377Z,101507.44
2022-09-02T12:00:13.127Z,101501.50
2022-09-02T12:02:33.985Z,101505.31
2022-09-02T12:07:26.931Z,101502.81
2022-09-02T12:09:47.558Z,101496.56
2022-09-02T12:11:55.797Z,101495.13
2022-09-02T12:13:57.635Z,101489.34
2022-09-02T12:16:32.832Z,101486.69
2022-09-02T12:18:36.136Z,101481.16
2022-09-02T12:21:16.260Z,101468.94
2022-09-02T12:23:58.258Z,101477.00
2022-09-02T12:26:05.726Z,101464.63
2022-09-02T12:28:25.184Z,101469.56
2022-09-02T12:31:01.033Z,101462.53
2022-09-02T12:33:12.543Z,101460.97
2022-09-02T12:35:30.930Z,101460.66
2022-09-02T12:37:54.083Z,101457.34
2022-09-02T12:40:02.184Z,101462.88
2022-09-02T12:42:18.507Z,101450.75
2022-09-02T12:44:29.125Z,101449.84
2022-09-02T12:46:53.394Z,101453.28
2022-09-02T12:49:03.051Z,101449.13
2022-09-02T12:51:06.719Z,101447.19
2022-09-02T12:53:32.064Z,101450.88
2022-09-02T12:55:35.171Z,101444.69
2022-09-02T12:57:42.217Z,101443.13
2022-09-02T12:59:49.294Z,101433.13
2022-09-02T13:02:03.488Z,101438.16
2022-09-02T13:04:31.105Z,101433.16
2022-09-02T13:06:51.554Z,101444.59
2022-09-02T13:09:40.687Z,101436.47
2022-09-02T13:12:16.357Z,101438.28
2022-09-02T13:14:52.673Z,101436.13
2022-09-02T13:17:37.069Z,101430.94
2022-09-02T13:20:38.780Z,101435.25
2022-09-02T13:22:59.160Z,101430.16
2022-09-02T13:25:33.053Z,101429.63
2022-09-02T13:27:52.748Z,101428.22
2022-09-02T13:30:10.716Z,101429.34
2022-09-02T13:32:22.560Z,101424.06
2022-09-02T13:34:24.298Z,101418.06
2022-09-02T13:36:32.951Z,101422.91
2022-09-02T13:38:38.917Z,101415.50
2022-09-02T13:40:46.323Z,101410.75
2022-09-02T13:42:56.498Z,101405.59
2022-09-02T13:45:23.771Z,101396.69
2022-09-02T13:47:25.478Z,101390.16
2022-09-02T13:49:37.449Z,101392.50
2022-09-02T13:51:45.333Z,101385.38
2022-09-02T13:54:20.755Z,101388.81
2022-09-02T13:56:14.409Z,101384.25
2022-09-02T13:58:26.241Z,101379.09
2022-09-02T14:00:32.948Z,101389.94
2022-09-02T14:02:36.648Z,101377.09
2022-09-02T14:04:41.492Z,101374.91
2022-09-02T14:06:48.811Z,101376.63
2022-09-02T14:08:56.539Z,101375.66
2022-09-02T14:10:58.628Z,101373.66
2022-09-02T14:13:02.406Z,101377.22
2022-09-02T14:15:12.591Z,101371.91
2022-09-02T14:17:26.615Z,101378.97
2022-09-02T14:19:28.212Z,101368.63
2022-09-02T14:21:30.294Z,101368.72
2022-09-02T14:23:37.358Z,101373.41
2022-09-02T14:25:49.146Z,101377.13
2022-09-02T14:27:52.117Z,101362.22
2022-09-02T14:29:59.322Z,101365.94
2022-09-02T14:32:11.796Z,101374.06
2022-09-02T14:34:38.576Z,101366.22
2022-09-02T14:36:40.113Z,101365.03
2022-09-02T14:39:17.198Z,101374.44
2022-09-02T14:41:24.451Z,101364.78
2022-09-02T14:43:29.344Z,101363.72
2022-09-02T14:45:33.183Z,101362.91
2022-09-02T14:47:37.903Z,101365.84
2022-09-02T14:49:47.612Z,101352.75
2022-09-02T14:51:51.818Z,101355.88
2022-09-02T14:53:56.284Z,101355.75
2022-09-02T14:55:58.038Z,101349.78
2022-09-02T14:58:01.937Z,101344.81
2022-09-02T15:00:08.447Z,101343.09
2022-09-02T15:02:24.665Z,101349.38
2022-09-02T15:04:26.350Z,101345.38
2022-09-02T15:06:29.322Z,101343.34
2022-09-02T15:08:31.154Z,101353.63
2022-09-02T15:10:32.733Z,101350.19
2022-09-02T15:12:38.549Z,101348.16
2022-09-02T15:14:40.219Z,101352.09
2022-09-02T15:16:41.753Z,101339.81
2022-09-02T15:18:43.424Z,101342.91
2022-09-02T15:20:44.912Z,101346.47
2022-09-02T15:22:48.708Z,101351.53
2022-09-02T15:24:50.283Z,101345.53
2022-09-02T15:26:59.307Z,101342.56
2022-09-02T15:29:02.761Z,101347.63
2022-09-02T15:31:04.534Z,101346.53
2022-09-02T15:33:07.178Z,101346.97
2022-09-02T15:35:09.848Z,101343.00
2022-09-02T15:37:13.235Z,101338.75
2022-09-02T15:39:17.623Z,101338.91
2022-09-02T15:41:21.723Z,101327.91
2022-09-02T15:43:24.459Z,101332.91
2022-09-02T15:45:26.230Z,101332.22
2022-09-02T15:47:28.041Z,101326.22
2022-09-02T15:49:32.296Z,101325.94
2022-09-02T15:51:35.490Z,101326.22
2022-09-02T15:53:37.149Z,101331.69
2022-09-02T15:55:43.045Z,101337.97
2022-09-02T15:57:44.570Z,101335.94
2022-09-02T15:59:46.088Z,101336.78
2022-09-02T16:01:49.072Z,101340.63
2022-09-02T16:03:50.640Z,101334.75
2022-09-02T16:05:52.193Z,101333.59
2022-09-02T16:07:53.820Z,101332.41
2022-09-02T16:09:56.067Z,101337.00
2022-09-02T16:12:01.031Z,101331.56
2022-09-02T16:14:02.644Z,101337.03
2022-09-02T16:16:06.672Z,101332.66
2022-09-02T16:18:08.227Z,101325.47
2022-09-02T16:20:12.690Z,101325.16
2022-09-02T16:22:14.526Z,101332.94
2022-09-02T16:24:16.635Z,101325.63
2022-09-02T16:26:26.373Z,101333.00
2022-09-02T16:28:29.444Z,101326.59
2022-09-02T16:30:31.060Z,101327.06
2022-09-02T16:32:35.128Z,101325.94
2022-09-02T16:34:36.802Z,101324.81
2022-09-02T16:36:40.317Z,101314.06
2022-09-02T16:38:41.867Z,101320.06
2022-09-02T16:40:50.163Z,101307.53
2022-09-02T16:42:51.745Z,101307.53
2022-09-02T16:44:57.389Z,101310.22
2022-09-02T16:46:58.897Z,101305.53
2022-09-02T16:49:00.549Z,101306.72
2022-09-02T16:51:04.883Z,101303.28
2022-09-02T16:53:06.868Z,101306.78
2022-09-02T16:55:11.779Z,101308.78
2022-09-02T16:57:13.328Z,101306.34
2022-09-02T16:59:15.020Z,101309.78
2022-09-02T17:01:20.684Z,101304.31
2022-09-02T17:03:22.576Z,101305.69
2022-09-02T17:05:24.199Z,101299.09
2022-09-02T17:07:25.990Z,101307.94
2022-09-02T17:09:27.583Z,101301.03
2022-09-02T17:11:31.061Z,101306.72
2022-09-02T17:13:32.752Z,101309.22
2022-09-02T17:15:34.467Z,101302.09
2022-09-02T17:17:37.343Z,101301.78
2022-09-02T17:19:41.437Z,101311.72
2022-09-02T17:21:45.094Z,101308.81
2022-09-02T17:23:47.429Z,101315.94
2022-09-02T17:25:50.222Z,101311.78
2022-09-02T17:27:51.781Z,101317.56
2022-09-02T17:29:56.050Z,101317.41
2022-09-02T17:31:57.627Z,101323.47
2022-09-02T17:34:04.130Z,101313.78
2022-09-02T17:36:06.036Z,101312.59
2022-09-02T17:38:07.672Z,101315.78
2022-09-02T17:40:09.729Z,101314.81
2022-09-02T17:42:12.405Z,101318.75
2022-09-02T17:44:14.566Z,101317.28
2022-09-02T17:46:16.206Z,101321.50
2022-09-02T17:48:35.764Z,101322.75
2022-09-02T17:50:40.822Z,101320.78
2022-09-02T17:52:42.396Z,101311.06
2022-09-02T17:54:45.908Z,101326.66
2022-09-02T17:57:22.348Z,101310.22
2022-09-02T17:59:32.659Z,101321.88
2022-09-02T18:01:37.492Z,101318.69
2022-09-02T18:03:54.123Z,101319.56
2022-09-02T18:06:12.921Z,101318.84
2022-09-02T18:08:27.722Z,101323.50
2022-09-02T18:10:33.337Z,101320.69
2022-09-02T18:12:37.023Z,101325.72
2022-09-02T18:14:43.859Z,101325.34
2022-09-02T18:17:01.768Z,101332.94
2022-09-02T18:19:13.143Z,101336.13
2022-09-02T18:21:23.216Z,101331.31
2022-09-02T18:23:53.797Z,101335.25
2022-09-02T18:26:05.374Z,101329.84
2022-09-02T18:28:16.316Z,101330.50
2022-09-02T18:30:24.611Z,101335.63
2022-09-02T18:32:39.705Z,101339.56
2022-09-02T18:34:52.172Z,101336.34
2022-09-02T18:37:03.286Z,101337.09
2022-09-02T18:39:23.885Z,101339.66
2022-09-02T18:41:40.352Z,101344.09
2022-09-02T18:43:55.653Z,101341.91
2022-09-02T18:46:00.187Z,101347.06
2022-09-02T18:48:09.645Z,101346.56
2022-09-02T18:50:32.171Z,101352.56
2022-09-02T18:52:37.988Z,101343.38
2022-09-02T18:54:46.248Z,101345.56
2022-09-02T18:56:51.533Z,101359.06
2022-09-02T18:58:57.368Z,101357.59
2022-09-02T19:01:04.681Z,101354.91
2022-09-02T19:03:06.466Z,101355.88
2022-09-02T19:05:11.089Z,101356.00
2022-09-02T19:07:13.599Z,101359.56
2022-09-02T19:09:25.595Z,101356.13
2022-09-02T19:11:33.287Z,101355.28
2022-09-02T19:13:44.224Z,101361.41
2022-09-02T19:15:45.779Z,101363.97
2022-09-02T19:17:47.343Z,101363.72
2022-09-02T19:19:48.930Z,101362.00
2022-09-02T19:21:53.633Z,101359.56
2022-09-02T19:23:55.473Z,101363.13
2022-09-02T19:25:58.606Z,101368.13
2022-09-02T19:28:03.819Z,101368.63
2022-09-02T19:30:08.662Z,101366.66
2022-09-02T19:32:12.322Z,101366.66
2022-09-02T19:34:17.560Z,101362.50
2022-09-02T19:36:23.182Z,101359.31
2022-09-02T19:38:29.090Z,101369.94
2022-09-02T19:40:32.898Z,101369.09
2022-09-02T19:42:36.417Z,101365.66
2022-09-02T19:44:37.977Z,101371.06
2022-09-02T19:49:01.050Z,101368.66
2022-09-02T19:51:10.570Z,101370.94
2022-09-02T19:53:17.732Z,101376.38
2022-09-02T19:55:19.422Z,101379.75
2022-09-02T19:57:20.994Z,101370.50
2022-09-02T19:59:24.127Z,101378.16
2022-09-02T20:01:25.867Z,101376.22
2022-09-02T20:03:27.732Z,101370.03
2022-09-02T20:05:29.291Z,101375.84
2022-09-02T20:07:30.807Z,101382.53
2022-09-02T20:09:32.405Z,101385.16
2022-09-02T20:11:34.489Z,101375.47
2022-09-02T20:13:41.431Z,101380.84
2022-09-02T20:15:44.943Z,101376.75
2022-09-02T20:17:46.521Z,101385.28
2022-09-02T20:19:54.533Z,101382.59
2022-09-02T20:21:56.677Z,101375.66
2022-09-02T20:24:04.651Z,101381.47
2022-09-02T20:26:23.665Z,101380.94
2022-09-02T20:28:33.266Z,101376.97
2022-09-02T20:30:38.031Z,101376.09
2022-09-02T20:32:52.263Z,101381.25
2022-09-02T20:35:05.689Z,101381.91
2022-09-02T20:37:25.352Z,101384.28
2022-09-02T20:39:44.408Z,101386.66
2022-09-02T20:41:54.333Z,101391.47
2022-09-02T20:44:14.386Z,101385.56
2022-09-02T20:46:35.657Z,101395.47
2022-09-02T20:48:52.991Z,101399.50
2022-09-02T20:51:02.226Z,101390.78
2022-09-02T20:53:19.683Z,101406.16
2022-09-02T20:55:25.448Z,101393.47
2022-09-02T20:57:40.355Z,101393.91
2022-09-02T20:59:52.516Z,101402.72
2022-09-02T21:01:58.020Z,101399.47
2022-09-02T21:04:07.470Z,101402.94
2022-09-02T21:06:12.065Z,101404.88
2022-09-02T21:08:21.022Z,101405.81
2022-09-02T21:10:32.943Z,101404.41
2022-09-02T21:12:42.933Z,101403.44
2022-09-02T21:14:47.888Z,101403.75
2022-09-02T21:16:59.409Z,101406.44
2022-09-02T21:19:12.878Z,101403.66
2022-09-02T21:21:23.455Z,101401.16
2022-09-02T21:23:32.167Z,101410.59
2022-09-02T21:25:39.159Z,101407.59
2022-09-02T21:27:46.872Z,101416.16
2022-09-02T21:29:59.019Z,101413.78
2022-09-02T21:32:09.045Z,101413.69
2022-09-02T21:34:22.546Z,101404.97
2022-09-02T21:36:28.673Z,101401.53
2022-09-02T21:38:38.603Z,101416.78
2022-09-02T21:40:57.484Z,101405.59
2022-09-02T21:43:14.622Z,101418.25
2022-09-02T21:45:22.815Z,101413.28
2022-09-02T21:47:30.984Z,101410.81
2022-09-02T21:49:58.880Z,101407.72
2022-09-02T21:52:08.869Z,101405.44
2022-09-02T21:54:35.951Z,101402.75
2022-09-02T21:56:57.263Z,101393.81
2022-09-02T21:59:17.005Z,101393.16
2022-09-02T22:01:29.936Z,101408.72
2022-09-02T22:03:36.417Z,101404.63
2022-09-02T22:05:50.163Z,101403.75
2022-09-02T22:08:01.511Z,101412.78
2022-09-02T22:10:12.309Z,101400.91
2022-09-02T22:12:14.707Z,101407.03
2022-09-02T22:14:23.570Z,101400.25
2022-09-02T22:16:38.060Z,101410.69
2022-09-02T22:18:42.146Z,101407.91
2022-09-02T22:20:45.375Z,101407.22
2022-09-02T22:22:51.635Z,101409.31
2022-09-02T22:24:54.751Z,101398.59
2022-09-02T22:27:00.589Z,101406.06
2022-09-02T22:29:06.236Z,101411.63
2022-09-02T22:31:12.671Z,101408.00
2022-09-02T22:33:21.639Z,101413.66
2022-09-02T22:35:27.491Z,101418.53
2022-09-02T22:37:46.059Z,101412.50
2022-09-02T22:39:51.967Z,101408.78
2022-09-02T22:42:00.733Z,101413.28
2022-09-02T22:44:07.259Z,101414.03
2022-09-02T22:46:16.548Z,101413.75
2022-09-02T22:48:23.641Z,101412.03
2022-09-02T22:50:33.623Z,101412.81
2022-09-02T22:52:37.988Z,101408.38
2022-09-02T22:54:43.171Z,101406.97
2022-09-02T22:56:54.276Z,101410.13
2022-09-02T22:59:23.963Z,101410.31
2022-09-02T23:01:34.465Z,101417.97
2022-09-02T23:03:46.285Z,101414.03
2022-09-02T23:06:05.882Z,101406.84
2022-09-02T23:08:12.352Z,101400.88
2022-09-02T23:10:19.036Z,101407.19
2022-09-02T23:12:29.513Z,101402.78
2022-09-02T23:14:40.705Z,101403.16
2022-09-02T23:17:11.533Z,101401.25
2022-09-02T23:19:24.321Z,101401.25
2022-09-02T23:21:38.656Z,101397.03
2022-09-02T23:23:50.972Z,101386.69
2022-09-02T23:26:06.617Z,101387.81
2022-09-02T23:28:14.375Z,101392.03
2022-09-02T23:30:15.944Z,101387.34
2022-09-02T23:32:40.449Z,101385.63
2022-09-02T23:35:02.768Z,101384.06
2022-09-02T23:37:13.613Z,101380.63
2022-09-02T23:39:43.528Z,101382.72
2022-09-02T23:41:52.695Z,101379.50
2022-09-02T23:43:57.352Z,101374.97
2022-09-02T23:46:15.716Z,101375.09
2022-09-02T23:48:32.706Z,101374.59
2022-09-02T23:50:49.481Z,101375.47
2022-09-02T23:52:53.421Z,101379.47
2022-09-02T23:55:08.679Z,101371.97
2022-09-02T23:57:26.802Z,101368.44
2022-09-02T23:59:45.992Z,101368.69
